Ozark Lithia, Arkansas
Current Conditions -  °F | °C
As of 12:53 PM on Friday 28 Nov 2014 (Local Time) from KHOT Reporting Station
Clear Clear  
Wind Chill: 54°   Ceiling: Unl
Heat Index: 54°   Visibility: 10mi
Dew Point: 34°   Wind: 7mph
Humidity: 47%   Direction: NA
Pressure: 30.19"   Gusts: NA
Location:  34.5331°N, 93.0035°W
Report Text: KHOT 281853Z AUTO VRB06KT 10SM CLR 12/01 A3019 RMK AO2 SLP225 T01220011
Loading
Personal Weather Stations






























Interactive Weather Map New forecast layout! Learn more

10-Day Weather Forecast

Advertisements
Track Severe Weather on mobile